sensor_id;sensor_type;location;lat;lon;timestamp;P1;durP1;ratioP1;P2;durP2;ratioP2
549;SDS011;20066;48.764;9.176;2023-03-03T00:00:53;54.55;;;24.25;;
549;SDS011;20066;48.764;9.176;2023-03-03T00:03:21;56.92;;;24.92;;
549;SDS011;20066;48.764;9.176;2023-03-03T00:05:51;49.67;;;23.55;;
549;SDS011;20066;48.764;9.176;2023-03-03T00:08:19;49.92;;;24.65;;
549;SDS011;20066;48.764;9.176;2023-03-03T00:10:48;59.75;;;24.60;;
549;SDS011;20066;48.764;9.176;2023-03-03T00:13:18;50.63;;;23.25;;
549;SDS011;20066;48.764;9.176;2023-03-03T00:15:49;56.20;;;23.65;;
549;SDS011;20066;48.764;9.176;2023-03-03T00:18:20;54.05;;;25.15;;
549;SDS011;20066;48.764;9.176;2023-03-03T00:20:53;51.60;;;23.73;;
549;SDS011;20066;48.764;9.176;2023-03-03T00:23:23;65.57;;;26.55;;
549;SDS011;20066;48.764;9.176;2023-03-03T00:25:56;60.90;;;25.63;;
549;SDS011;20066;48.764;9.176;2023-03-03T00:28:26;52.35;;;23.90;;
549;SDS011;20066;48.764;9.176;2023-03-03T00:30:58;62.38;;;26.27;;
549;SDS011;20066;48.764;9.176;2023-03-03T00:33:29;61.08;;;25.65;;
549;SDS011;20066;48.764;9.176;2023-03-03T00:36:05;56.05;;;26.20;;
549;SDS011;20066;48.764;9.176;2023-03-03T00:38:48;58.17;;;27.70;;
549;SDS011;20066;48.764;9.176;2023-03-03T00:41:18;53.85;;;24.90;;
549;SDS011;20066;48.764;9.176;2023-03-03T00:43:49;58.42;;;24.52;;
549;SDS011;20066;48.764;9.176;2023-03-03T00:46:19;47.97;;;23.80;;
549;SDS011;20066;48.764;9.176;2023-03-03T00:48:49;60.05;;;26.55;;
549;SDS011;20066;48.764;9.176;2023-03-03T00:51:20;50.75;;;24.55;;
549;SDS011;20066;48.764;9.176;2023-03-03T00:53:54;59.83;;;28.35;;
549;SDS011;20066;48.764;9.176;2023-03-03T00:56:22;58.55;;;27.98;;
549;SDS011;20066;48.764;9.176;2023-03-03T00:58:50;48.97;;;24.10;;
549;SDS011;20066;48.764;9.176;2023-03-03T01:01:20;56.78;;;25.63;;
549;SDS011;20066;48.764;9.176;2023-03-03T01:03:48;60.30;;;26.48;;
549;SDS011;20066;48.764;9.176;2023-03-03T01:06:15;58.65;;;24.58;;
549;SDS011;20066;48.764;9.176;2023-03-03T01:08:43;58.78;;;27.40;;
549;SDS011;20066;48.764;9.176;2023-03-03T01:11:11;57.53;;;27.27;;
549;SDS011;20066;48.764;9.176;2023-03-03T01:13:43;56.00;;;26.50;;
549;SDS011;20066;48.764;9.176;2023-03-03T01:16:14;52.97;;;25.35;;
549;SDS011;20066;48.764;9.176;2023-03-03T01:18:43;56.30;;;26.67;;
549;SDS011;20066;48.764;9.176;2023-03-03T01:21:11;58.65;;;26.05;;
549;SDS011;20066;48.764;9.176;2023-03-03T01:23:39;53.65;;;25.15;;
549;SDS011;20066;48.764;9.176;2023-03-03T01:26:07;58.53;;;26.75;;
549;SDS011;20066;48.764;9.176;2023-03-03T01:28:35;58.92;;;26.83;;
549;SDS011;20066;48.764;9.176;2023-03-03T01:31:04;54.17;;;27.50;;
549;SDS011;20066;48.764;9.176;2023-03-03T01:33:40;58.83;;;28.40;;
549;SDS011;20066;48.764;9.176;2023-03-03T01:36:10;57.90;;;27.50;;
549;SDS011;20066;48.764;9.176;2023-03-03T01:38:37;62.63;;;28.10;;
549;SDS011;20066;48.764;9.176;2023-03-03T01:41:05;56.08;;;24.92;;
549;SDS011;20066;48.764;9.176;2023-03-03T01:43:33;58.33;;;27.75;;
549;SDS011;20066;48.764;9.176;2023-03-03T01:49:12;59.33;;;28.02;;
549;SDS011;20066;48.764;9.176;2023-03-03T01:51:49;62.45;;;28.88;;
549;SDS011;20066;48.764;9.176;2023-03-03T01:54:21;56.28;;;26.88;;
549;SDS011;20066;48.764;9.176;2023-03-03T01:56:55;61.42;;;26.27;;
549;SDS011;20066;48.764;9.176;2023-03-03T01:59:26;58.00;;;28.80;;
549;SDS011;20066;48.764;9.176;2023-03-03T02:01:58;57.33;;;28.27;;
549;SDS011;20066;48.764;9.176;2023-03-03T02:04:26;62.72;;;29.50;;
549;SDS011;20066;48.764;9.176;2023-03-03T02:06:57;59.92;;;30.27;;
549;SDS011;20066;48.764;9.176;2023-03-03T02:09:31;60.22;;;29.90;;
549;SDS011;20066;48.764;9.176;2023-03-03T02:12:06;69.60;;;29.80;;
549;SDS011;20066;48.764;9.176;2023-03-03T02:14:37;57.10;;;25.48;;
549;SDS011;20066;48.764;9.176;2023-03-03T02:17:05;65.50;;;28.45;;
549;SDS011;20066;48.764;9.176;2023-03-03T02:19:35;63.25;;;28.25;;
549;SDS011;20066;48.764;9.176;2023-03-03T02:22:15;58.95;;;27.05;;
549;SDS011;20066;48.764;9.176;2023-03-03T02:24:48;59.60;;;28.88;;
549;SDS011;20066;48.764;9.176;2023-03-03T02:27:20;70.10;;;28.83;;
549;SDS011;20066;48.764;9.176;2023-03-03T02:29:48;67.97;;;29.88;;
549;SDS011;20066;48.764;9.176;2023-03-03T02:32:17;68.30;;;31.00;;
549;SDS011;20066;48.764;9.176;2023-03-03T02:34:48;68.00;;;30.38;;
549;SDS011;20066;48.764;9.176;2023-03-03T02:37:17;63.50;;;28.90;;
549;SDS011;20066;48.764;9.176;2023-03-03T02:39:46;59.40;;;28.08;;
549;SDS011;20066;48.764;9.176;2023-03-03T02:42:14;57.67;;;28.45;;
549;SDS011;20066;48.764;9.176;2023-03-03T02:44:47;66.25;;;29.25;;
549;SDS011;20066;48.764;9.176;2023-03-03T02:47:16;67.10;;;30.05;;
549;SDS011;20066;48.764;9.176;2023-03-03T02:49:44;67.97;;;28.98;;
549;SDS011;20066;48.764;9.176;2023-03-03T02:52:12;59.17;;;29.25;;
549;SDS011;20066;48.764;9.176;2023-03-03T02:54:40;58.42;;;28.13;;
549;SDS011;20066;48.764;9.176;2023-03-03T02:57:08;70.32;;;26.52;;
549;SDS011;20066;48.764;9.176;2023-03-03T02:59:36;63.05;;;27.13;;
549;SDS011;20066;48.764;9.176;2023-03-03T03:02:05;51.58;;;24.00;;
549;SDS011;20066;48.764;9.176;2023-03-03T03:04:34;54.47;;;24.85;;
549;SDS011;20066;48.764;9.176;2023-03-03T03:07:02;56.33;;;26.08;;
549;SDS011;20066;48.764;9.176;2023-03-03T03:09:30;59.53;;;25.98;;
549;SDS011;20066;48.764;9.176;2023-03-03T03:11:57;57.10;;;27.73;;
549;SDS011;20066;48.764;9.176;2023-03-03T03:14:27;58.17;;;26.58;;
549;SDS011;20066;48.764;9.176;2023-03-03T03:16:55;57.78;;;26.05;;
549;SDS011;20066;48.764;9.176;2023-03-03T03:19:25;57.22;;;25.70;;
549;SDS011;20066;48.764;9.176;2023-03-03T03:21:55;54.80;;;26.50;;
549;SDS011;20066;48.764;9.176;2023-03-03T03:24:23;55.78;;;26.27;;
549;SDS011;20066;48.764;9.176;2023-03-03T03:26:51;60.03;;;26.55;;
549;SDS011;20066;48.764;9.176;2023-03-03T03:29:18;56.53;;;26.35;;
549;SDS011;20066;48.764;9.176;2023-03-03T03:31:46;62.97;;;26.13;;
549;SDS011;20066;48.764;9.176;2023-03-03T03:34:14;56.30;;;26.45;;
549;SDS011;20066;48.764;9.176;2023-03-03T03:36:43;64.15;;;26.85;;
549;SDS011;20066;48.764;9.176;2023-03-03T03:39:12;60.83;;;25.00;;
549;SDS011;20066;48.764;9.176;2023-03-03T03:41:40;62.22;;;25.65;;
549;SDS011;20066;48.764;9.176;2023-03-03T03:44:07;64.15;;;26.70;;
549;SDS011;20066;48.764;9.176;2023-03-03T03:46:35;56.35;;;24.67;;
549;SDS011;20066;48.764;9.176;2023-03-03T03:49:03;59.00;;;25.05;;
549;SDS011;20066;48.764;9.176;2023-03-03T03:51:30;60.65;;;25.45;;
549;SDS011;20066;48.764;9.176;2023-03-03T03:54:02;58.13;;;24.75;;
549;SDS011;20066;48.764;9.176;2023-03-03T03:56:30;55.55;;;23.98;;
549;SDS011;20066;48.764;9.176;2023-03-03T03:58:57;61.53;;;26.58;;
549;SDS011;20066;48.764;9.176;2023-03-03T04:01:26;59.80;;;25.27;;
549;SDS011;20066;48.764;9.176;2023-03-03T04:03:53;60.65;;;27.27;;
549;SDS011;20066;48.764;9.176;2023-03-03T04:06:21;55.08;;;24.83;;
549;SDS011;20066;48.764;9.176;2023-03-03T04:08:49;52.45;;;24.70;;
549;SDS011;20066;48.764;9.176;2023-03-03T04:11:18;56.13;;;25.45;;
549;SDS011;20066;48.764;9.176;2023-03-03T04:13:46;67.00;;;26.10;;
549;SDS011;20066;48.764;9.176;2023-03-03T04:16:13;56.22;;;25.13;;
549;SDS011;20066;48.764;9.176;2023-03-03T04:18:41;62.78;;;25.63;;
549;SDS011;20066;48.764;9.176;2023-03-03T04:21:12;56.50;;;25.33;;
549;SDS011;20066;48.764;9.176;2023-03-03T04:23:40;59.55;;;26.35;;
549;SDS011;20066;48.764;9.176;2023-03-03T04:26:08;59.40;;;25.70;;
549;SDS011;20066;48.764;9.176;2023-03-03T04:28:38;60.63;;;27.90;;
549;SDS011;20066;48.764;9.176;2023-03-03T04:31:05;56.20;;;24.85;;
549;SDS011;20066;48.764;9.176;2023-03-03T04:33:33;59.60;;;25.23;;
549;SDS011;20066;48.764;9.176;2023-03-03T04:36:01;60.22;;;26.75;;
549;SDS011;20066;48.764;9.176;2023-03-03T04:38:29;54.33;;;26.35;;
549;SDS011;20066;48.764;9.176;2023-03-03T04:40:57;55.92;;;24.90;;
549;SDS011;20066;48.764;9.176;2023-03-03T04:43:25;60.25;;;28.15;;
549;SDS011;20066;48.764;9.176;2023-03-03T04:45:54;60.33;;;26.50;;
549;SDS011;20066;48.764;9.176;2023-03-03T04:48:22;64.25;;;28.25;;
549;SDS011;20066;48.764;9.176;2023-03-03T04:50:50;62.63;;;26.40;;
549;SDS011;20066;48.764;9.176;2023-03-03T04:53:17;60.75;;;27.83;;
549;SDS011;20066;48.764;9.176;2023-03-03T04:55:45;60.78;;;27.80;;
549;SDS011;20066;48.764;9.176;2023-03-03T04:58:13;51.55;;;25.35;;
549;SDS011;20066;48.764;9.176;2023-03-03T05:00:41;60.40;;;26.83;;
549;SDS011;20066;48.764;9.176;2023-03-03T05:03:10;68.47;;;27.08;;
549;SDS011;20066;48.764;9.176;2023-03-03T05:05:39;68.40;;;30.15;;
549;SDS011;20066;48.764;9.176;2023-03-03T05:08:07;69.38;;;28.20;;
549;SDS011;20066;48.764;9.176;2023-03-03T05:10:35;65.80;;;29.95;;
549;SDS011;20066;48.764;9.176;2023-03-03T05:13:03;65.10;;;29.40;;
549;SDS011;20066;48.764;9.176;2023-03-03T05:15:31;73.75;;;29.90;;
549;SDS011;20066;48.764;9.176;2023-03-03T05:17:59;68.50;;;29.77;;
549;SDS011;20066;48.764;9.176;2023-03-03T05:20:28;61.30;;;27.85;;
549;SDS011;20066;48.764;9.176;2023-03-03T05:22:55;75.20;;;32.38;;
549;SDS011;20066;48.764;9.176;2023-03-03T05:25:26;82.40;;;30.08;;
549;SDS011;20066;48.764;9.176;2023-03-03T05:27:54;71.30;;;30.80;;
549;SDS011;20066;48.764;9.176;2023-03-03T05:30:22;77.75;;;31.05;;
549;SDS011;20066;48.764;9.176;2023-03-03T05:32:50;71.03;;;29.13;;
549;SDS011;20066;48.764;9.176;2023-03-03T05:35:17;70.97;;;29.42;;
549;SDS011;20066;48.764;9.176;2023-03-03T05:37:47;64.60;;;28.65;;
549;SDS011;20066;48.764;9.176;2023-03-03T05:40:15;77.53;;;31.08;;
549;SDS011;20066;48.764;9.176;2023-03-03T05:42:43;70.10;;;29.63;;
549;SDS011;20066;48.764;9.176;2023-03-03T05:45:11;72.45;;;30.38;;
549;SDS011;20066;48.764;9.176;2023-03-03T05:47:39;78.78;;;29.23;;
549;SDS011;20066;48.764;9.176;2023-03-03T05:50:07;68.22;;;27.98;;
549;SDS011;20066;48.764;9.176;2023-03-03T05:52:37;66.55;;;27.55;;
549;SDS011;20066;48.764;9.176;2023-03-03T05:55:07;60.83;;;28.08;;
549;SDS011;20066;48.764;9.176;2023-03-03T05:57:36;69.90;;;27.45;;
549;SDS011;20066;48.764;9.176;2023-03-03T06:00:04;65.18;;;27.70;;
549;SDS011;20066;48.764;9.176;2023-03-03T06:02:33;68.97;;;27.98;;
549;SDS011;20066;48.764;9.176;2023-03-03T06:05:02;75.80;;;28.05;;
549;SDS011;20066;48.764;9.176;2023-03-03T06:07:29;79.47;;;30.50;;
549;SDS011;20066;48.764;9.176;2023-03-03T06:09:57;69.28;;;28.90;;
549;SDS011;20066;48.764;9.176;2023-03-03T06:12:27;64.95;;;27.38;;
549;SDS011;20066;48.764;9.176;2023-03-03T06:14:54;61.83;;;25.60;;
549;SDS011;20066;48.764;9.176;2023-03-03T06:17:22;56.60;;;24.27;;
549;SDS011;20066;48.764;9.176;2023-03-03T06:19:50;55.35;;;25.33;;
549;SDS011;20066;48.764;9.176;2023-03-03T06:22:18;54.78;;;23.40;;
549;SDS011;20066;48.764;9.176;2023-03-03T06:24:45;51.80;;;22.25;;
549;SDS011;20066;48.764;9.176;2023-03-03T06:27:13;54.50;;;23.48;;
549;SDS011;20066;48.764;9.176;2023-03-03T06:29:42;63.55;;;27.15;;
549;SDS011;20066;48.764;9.176;2023-03-03T06:32:10;56.80;;;23.33;;
549;SDS011;20066;48.764;9.176;2023-03-03T06:34:38;58.05;;;24.02;;
549;SDS011;20066;48.764;9.176;2023-03-03T06:37:06;50.08;;;24.13;;
549;SDS011;20066;48.764;9.176;2023-03-03T06:39:34;52.30;;;22.90;;
549;SDS011;20066;48.764;9.176;2023-03-03T06:42:03;57.35;;;24.23;;
549;SDS011;20066;48.764;9.176;2023-03-03T06:44:31;60.03;;;24.35;;
549;SDS011;20066;48.764;9.176;2023-03-03T06:47:00;52.00;;;23.88;;
549;SDS011;20066;48.764;9.176;2023-03-03T06:49:29;60.55;;;26.17;;
549;SDS011;20066;48.764;9.176;2023-03-03T06:51:56;56.83;;;24.88;;
549;SDS011;20066;48.764;9.176;2023-03-03T06:54:28;56.80;;;23.38;;
549;SDS011;20066;48.764;9.176;2023-03-03T06:56:57;55.83;;;23.50;;
549;SDS011;20066;48.764;9.176;2023-03-03T06:59:27;52.05;;;22.63;;
549;SDS011;20066;48.764;9.176;2023-03-03T07:01:55;43.35;;;21.42;;
549;SDS011;20066;48.764;9.176;2023-03-03T07:04:26;49.78;;;22.10;;
549;SDS011;20066;48.764;9.176;2023-03-03T07:06:56;56.75;;;24.40;;
549;SDS011;20066;48.764;9.176;2023-03-03T07:09:27;54.78;;;22.55;;
549;SDS011;20066;48.764;9.176;2023-03-03T07:11:56;54.20;;;24.38;;
549;SDS011;20066;48.764;9.176;2023-03-03T07:14:28;53.15;;;25.23;;
549;SDS011;20066;48.764;9.176;2023-03-03T07:16:57;54.08;;;24.40;;
549;SDS011;20066;48.764;9.176;2023-03-03T07:19:30;57.75;;;22.60;;
549;SDS011;20066;48.764;9.176;2023-03-03T07:22:00;55.38;;;24.20;;
549;SDS011;20066;48.764;9.176;2023-03-03T07:24:42;55.55;;;24.55;;
549;SDS011;20066;48.764;9.176;2023-03-03T07:27:13;47.13;;;21.85;;
549;SDS011;20066;48.764;9.176;2023-03-03T07:29:46;52.03;;;22.13;;
549;SDS011;20066;48.764;9.176;2023-03-03T07:32:21;54.33;;;24.02;;
549;SDS011;20066;48.764;9.176;2023-03-03T07:34:54;54.53;;;23.45;;
549;SDS011;20066;48.764;9.176;2023-03-03T07:37:28;47.65;;;21.08;;
549;SDS011;20066;48.764;9.176;2023-03-03T07:39:58;50.55;;;20.67;;
549;SDS011;20066;48.764;9.176;2023-03-03T07:42:30;51.40;;;21.33;;
549;SDS011;20066;48.764;9.176;2023-03-03T07:45:19;50.10;;;23.38;;
549;SDS011;20066;48.764;9.176;2023-03-03T07:47:51;47.30;;;21.08;;
549;SDS011;20066;48.764;9.176;2023-03-03T07:50:24;48.83;;;22.17;;
549;SDS011;20066;48.764;9.176;2023-03-03T07:52:54;42.10;;;21.13;;
549;SDS011;20066;48.764;9.176;2023-03-03T07:55:29;47.78;;;22.15;;
549;SDS011;20066;48.764;9.176;2023-03-03T07:58:14;48.80;;;22.15;;
549;SDS011;20066;48.764;9.176;2023-03-03T08:03:55;41.65;;;20.80;;
549;SDS011;20066;48.764;9.176;2023-03-03T08:06:36;52.72;;;20.60;;
549;SDS011;20066;48.764;9.176;2023-03-03T08:09:19;54.00;;;22.75;;
549;SDS011;20066;48.764;9.176;2023-03-03T08:11:58;50.50;;;22.33;;
549;SDS011;20066;48.764;9.176;2023-03-03T08:14:39;44.75;;;21.50;;
549;SDS011;20066;48.764;9.176;2023-03-03T08:17:11;54.22;;;22.13;;
549;SDS011;20066;48.764;9.176;2023-03-03T08:19:47;50.75;;;22.52;;
549;SDS011;20066;48.764;9.176;2023-03-03T08:22:19;44.30;;;20.90;;
549;SDS011;20066;48.764;9.176;2023-03-03T08:24:57;50.85;;;22.38;;
549;SDS011;20066;48.764;9.176;2023-03-03T08:27:25;50.42;;;22.60;;
549;SDS011;20066;48.764;9.176;2023-03-03T08:29:54;49.28;;;22.73;;
549;SDS011;20066;48.764;9.176;2023-03-03T08:32:22;42.65;;;21.05;;
549;SDS011;20066;48.764;9.176;2023-03-03T08:34:50;46.60;;;20.90;;
549;SDS011;20066;48.764;9.176;2023-03-03T08:37:20;38.57;;;18.40;;
549;SDS011;20066;48.764;9.176;2023-03-03T08:39:48;42.57;;;20.03;;
549;SDS011;20066;48.764;9.176;2023-03-03T08:42:16;40.93;;;20.67;;
549;SDS011;20066;48.764;9.176;2023-03-03T08:44:45;44.97;;;21.43;;
549;SDS011;20066;48.764;9.176;2023-03-03T08:47:13;46.13;;;20.20;;
549;SDS011;20066;48.764;9.176;2023-03-03T08:49:41;48.13;;;21.40;;
549;SDS011;20066;48.764;9.176;2023-03-03T08:52:11;42.50;;;20.37;;
549;SDS011;20066;48.764;9.176;2023-03-03T08:54:41;42.13;;;21.10;;
549;SDS011;20066;48.764;9.176;2023-03-03T08:57:11;48.20;;;22.17;;
549;SDS011;20066;48.764;9.176;2023-03-03T08:59:39;47.60;;;21.93;;
549;SDS011;20066;48.764;9.176;2023-03-03T09:02:07;43.53;;;20.80;;
549;SDS011;20066;48.764;9.176;2023-03-03T09:04:35;36.37;;;18.47;;
549;SDS011;20066;48.764;9.176;2023-03-03T09:07:03;38.73;;;18.70;;
549;SDS011;20066;48.764;9.176;2023-03-03T09:09:31;43.77;;;21.67;;
549;SDS011;20066;48.764;9.176;2023-03-03T09:12:05;42.33;;;20.90;;
549;SDS011;20066;48.764;9.176;2023-03-03T09:14:41;46.10;;;20.73;;
549;SDS011;20066;48.764;9.176;2023-03-03T09:17:22;44.23;;;22.10;;
549;SDS011;20066;48.764;9.176;2023-03-03T09:19:52;42.40;;;20.00;;
549;SDS011;20066;48.764;9.176;2023-03-03T09:22:25;44.47;;;21.00;;
549;SDS011;20066;48.764;9.176;2023-03-03T09:24:56;41.47;;;20.30;;
549;SDS011;20066;48.764;9.176;2023-03-03T09:27:28;42.13;;;20.27;;
549;SDS011;20066;48.764;9.176;2023-03-03T09:29:59;41.57;;;20.43;;
549;SDS011;20066;48.764;9.176;2023-03-03T09:32:33;38.70;;;19.70;;
549;SDS011;20066;48.764;9.176;2023-03-03T09:35:25;38.03;;;19.73;;
549;SDS011;20066;48.764;9.176;2023-03-03T09:38:06;39.27;;;;;
549;SDS011;20066;48.764;9.176;2023-03-03T09:40:49;40.90;;;21.50;;
549;SDS011;20066;48.764;9.176;2023-03-03T09:43:39;45.40;;;20.90;;
549;SDS011;20066;48.764;9.176;2023-03-03T09:46:13;48.97;;;21.80;;
549;SDS011;20066;48.764;9.176;2023-03-03T09:48:55;47.83;;;20.40;;
549;SDS011;20066;48.764;9.176;2023-03-03T09:51:35;44.27;;;21.20;;
549;SDS011;20066;48.764;9.176;2023-03-03T09:54:19;41.50;;;20.37;;
549;SDS011;20066;48.764;9.176;2023-03-03T09:57:02;39.77;;;19.87;;
549;SDS011;20066;48.764;9.176;2023-03-03T09:59:41;42.33;;;19.90;;
549;SDS011;20066;48.764;9.176;2023-03-03T10:02:23;41.00;;;21.00;;
549;SDS011;20066;48.764;9.176;2023-03-03T10:05:11;41.63;;;20.40;;
549;SDS011;20066;48.764;9.176;2023-03-03T10:07:48;42.83;;;20.23;;
549;SDS011;20066;48.764;9.176;2023-03-03T10:10:28;44.10;;;21.30;;
549;SDS011;20066;48.764;9.176;2023-03-03T10:13:14;38.73;;;19.60;;
549;SDS011;20066;48.764;9.176;2023-03-03T10:15:57;46.73;;;21.83;;
549;SDS011;20066;48.764;9.176;2023-03-03T10:18:41;38.73;;;20.77;;
549;SDS011;20066;48.764;9.176;2023-03-03T10:21:19;45.37;;;20.43;;
549;SDS011;20066;48.764;9.176;2023-03-03T10:23:52;41.77;;;22.07;;
549;SDS011;20066;48.764;9.176;2023-03-03T10:26:32;45.00;;;22.50;;
549;SDS011;20066;48.764;9.176;2023-03-03T10:29:34;45.63;;;21.97;;
549;SDS011;20066;48.764;9.176;2023-03-03T10:32:24;43.30;;;20.50;;
549;SDS011;20066;48.764;9.176;2023-03-03T10:35:20;52.87;;;22.10;;
549;SDS011;20066;48.764;9.176;2023-03-03T10:38:15;42.37;;;20.53;;
549;SDS011;20066;48.764;9.176;2023-03-03T10:41:23;45.67;;;21.00;;
549;SDS011;20066;48.764;9.176;2023-03-03T10:47:19;48.60;;;22.10;;
549;SDS011;20066;48.764;9.176;2023-03-03T10:50:02;37.43;;;20.37;;
549;SDS011;20066;48.764;9.176;2023-03-03T10:52:38;42.10;;;20.90;;
549;SDS011;20066;48.764;9.176;2023-03-03T10:55:18;44.20;;;23.37;;
549;SDS011;20066;48.764;9.176;2023-03-03T11:00:58;44.50;;;22.60;;
549;SDS011;20066;48.764;9.176;2023-03-03T11:03:39;48.27;;;23.37;;
549;SDS011;20066;48.764;9.176;2023-03-03T11:06:18;44.00;;;20.87;;
549;SDS011;20066;48.764;9.176;2023-03-03T11:08:53;44.53;;;21.37;;
549;SDS011;20066;48.764;9.176;2023-03-03T11:11:29;45.20;;;20.40;;
549;SDS011;20066;48.764;9.176;2023-03-03T11:14:05;53.60;;;23.23;;
549;SDS011;20066;48.764;9.176;2023-03-03T11:16:42;48.17;;;23.40;;
549;SDS011;20066;48.764;9.176;2023-03-03T11:19:36;51.50;;;24.00;;
549;SDS011;20066;48.764;9.176;2023-03-03T11:22:28;43.90;;;22.60;;
549;SDS011;20066;48.764;9.176;2023-03-03T11:25:15;53.80;;;25.60;;
549;SDS011;20066;48.764;9.176;2023-03-03T11:27:59;43.97;;;22.63;;
549;SDS011;20066;48.764;9.176;2023-03-03T11:30:47;53.22;;;25.05;;
549;SDS011;20066;48.764;9.176;2023-03-03T11:33:26;55.20;;;25.85;;
549;SDS011;20066;48.764;9.176;2023-03-03T11:36:08;55.55;;;26.25;;
549;SDS011;20066;48.764;9.176;2023-03-03T11:38:44;49.50;;;23.85;;
549;SDS011;20066;48.764;9.176;2023-03-03T11:41:21;53.13;;;26.00;;
549;SDS011;20066;48.764;9.176;2023-03-03T11:43:56;56.30;;;25.85;;
549;SDS011;20066;48.764;9.176;2023-03-03T11:46:31;45.08;;;23.10;;
549;SDS011;20066;48.764;9.176;2023-03-03T11:49:05;48.28;;;22.67;;
549;SDS011;20066;48.764;9.176;2023-03-03T11:51:43;52.42;;;23.92;;
549;SDS011;20066;48.764;9.176;2023-03-03T11:54:18;52.85;;;23.85;;
549;SDS011;20066;48.764;9.176;2023-03-03T11:56:50;49.95;;;23.80;;
549;SDS011;20066;48.764;9.176;2023-03-03T12:05:13;50.35;;;22.65;;
549;SDS011;20066;48.764;9.176;2023-03-03T12:07:56;46.00;;;21.27;;
549;SDS011;20066;48.764;9.176;2023-03-03T12:10:32;49.53;;;22.23;;
549;SDS011;20066;48.764;9.176;2023-03-03T12:13:09;49.57;;;22.80;;
549;SDS011;20066;48.764;9.176;2023-03-03T12:15:45;41.73;;;21.10;;
549;SDS011;20066;48.764;9.176;2023-03-03T12:18:27;51.72;;;23.92;;
549;SDS011;20066;48.764;9.176;2023-03-03T12:21:09;49.40;;;21.77;;
549;SDS011;20066;48.764;9.176;2023-03-03T12:23:54;45.28;;;23.27;;
549;SDS011;20066;48.764;9.176;2023-03-03T12:26:35;48.92;;;22.38;;
549;SDS011;20066;48.764;9.176;2023-03-03T12:29:12;49.85;;;21.45;;
549;SDS011;20066;48.764;9.176;2023-03-03T12:31:52;49.92;;;22.67;;
549;SDS011;20066;48.764;9.176;2023-03-03T12:34:30;46.72;;;22.08;;
549;SDS011;20066;48.764;9.176;2023-03-03T12:37:11;60.08;;;22.70;;
549;SDS011;20066;48.764;9.176;2023-03-03T12:40:02;47.53;;;24.05;;
549;SDS011;20066;48.764;9.176;2023-03-03T12:42:37;50.47;;;24.23;;
549;SDS011;20066;48.764;9.176;2023-03-03T12:45:22;44.58;;;20.55;;
549;SDS011;20066;48.764;9.176;2023-03-03T12:47:59;45.88;;;21.45;;
549;SDS011;20066;48.764;9.176;2023-03-03T12:50:34;46.75;;;22.08;;
549;SDS011;20066;48.764;9.176;2023-03-03T12:53:12;37.28;;;19.30;;
549;SDS011;20066;48.764;9.176;2023-03-03T12:55:53;44.40;;;21.80;;
549;SDS011;20066;48.764;9.176;2023-03-03T12:58:29;43.25;;;21.50;;
549;SDS011;20066;48.764;9.176;2023-03-03T13:01:13;41.10;;;20.25;;
549;SDS011;20066;48.764;9.176;2023-03-03T13:03:57;42.10;;;22.13;;
549;SDS011;20066;48.764;9.176;2023-03-03T13:06:31;45.10;;;20.98;;
549;SDS011;20066;48.764;9.176;2023-03-03T13:09:12;39.50;;;20.55;;
549;SDS011;20066;48.764;9.176;2023-03-03T13:11:57;61.03;;;22.73;;
549;SDS011;20066;48.764;9.176;2023-03-03T13:14:37;43.97;;;20.60;;
549;SDS011;20066;48.764;9.176;2023-03-03T13:17:16;46.47;;;21.02;;
549;SDS011;20066;48.764;9.176;2023-03-03T13:19:51;42.45;;;20.98;;
549;SDS011;20066;48.764;9.176;2023-03-03T13:22:29;44.38;;;20.38;;
549;SDS011;20066;48.764;9.176;2023-03-03T13:25:16;43.53;;;20.45;;
549;SDS011;20066;48.764;9.176;2023-03-03T13:27:59;43.15;;;20.40;;
549;SDS011;20066;48.764;9.176;2023-03-03T13:30:34;49.72;;;20.27;;
549;SDS011;20066;48.764;9.176;2023-03-03T13:33:10;43.10;;;21.77;;
549;SDS011;20066;48.764;9.176;2023-03-03T13:35:44;43.33;;;20.65;;
549;SDS011;20066;48.764;9.176;2023-03-03T13:38:17;43.95;;;20.33;;
549;SDS011;20066;48.764;9.176;2023-03-03T13:40:49;50.22;;;21.30;;
549;SDS011;20066;48.764;9.176;2023-03-03T13:43:28;41.85;;;19.80;;
549;SDS011;20066;48.764;9.176;2023-03-03T13:46:02;43.63;;;19.35;;
549;SDS011;20066;48.764;9.176;2023-03-03T13:48:47;40.27;;;18.87;;
549;SDS011;20066;48.764;9.176;2023-03-03T13:51:31;34.15;;;17.77;;
549;SDS011;20066;48.764;9.176;2023-03-03T13:54:11;40.37;;;18.47;;
549;SDS011;20066;48.764;9.176;2023-03-03T13:57:04;37.07;;;19.37;;
549;SDS011;20066;48.764;9.176;2023-03-03T13:59:44;48.60;;;21.13;;
549;SDS011;20066;48.764;9.176;2023-03-03T14:02:25;41.33;;;19.33;;
549;SDS011;20066;48.764;9.176;2023-03-03T14:05:12;34.20;;;18.00;;
549;SDS011;20066;48.764;9.176;2023-03-03T14:07:44;46.00;;;20.50;;
549;SDS011;20066;48.764;9.176;2023-03-03T14:10:20;58.27;;;19.73;;
549;SDS011;20066;48.764;9.176;2023-03-03T14:12:55;47.10;;;21.20;;
549;SDS011;20066;48.764;9.176;2023-03-03T14:15:32;43.63;;;20.50;;
549;SDS011;20066;48.764;9.176;2023-03-03T14:18:04;43.97;;;20.33;;
549;SDS011;20066;48.764;9.176;2023-03-03T14:20:48;46.40;;;19.27;;
549;SDS011;20066;48.764;9.176;2023-03-03T14:23:20;42.20;;;20.17;;
549;SDS011;20066;48.764;9.176;2023-03-03T14:25:52;47.27;;;20.97;;
549;SDS011;20066;48.764;9.176;2023-03-03T14:28:25;40.70;;;19.43;;
549;SDS011;20066;48.764;9.176;2023-03-03T14:30:56;43.43;;;20.80;;
549;SDS011;20066;48.764;9.176;2023-03-03T14:33:28;45.20;;;21.30;;
549;SDS011;20066;48.764;9.176;2023-03-03T14:38:51;44.30;;;19.93;;
549;SDS011;20066;48.764;9.176;2023-03-03T14:41:20;41.20;;;20.20;;
549;SDS011;20066;48.764;9.176;2023-03-03T14:44:23;44.10;;;20.48;;
549;SDS011;20066;48.764;9.176;2023-03-03T14:47:02;45.47;;;21.92;;
549;SDS011;20066;48.764;9.176;2023-03-03T14:49:38;44.75;;;21.45;;
549;SDS011;20066;48.764;9.176;2023-03-03T14:52:11;48.63;;;21.83;;
549;SDS011;20066;48.764;9.176;2023-03-03T14:54:47;45.80;;;20.50;;
549;SDS011;20066;48.764;9.176;2023-03-03T14:57:18;49.33;;;22.40;;
549;SDS011;20066;48.764;9.176;2023-03-03T14:59:57;50.45;;;22.65;;
549;SDS011;20066;48.764;9.176;2023-03-03T15:02:34;45.50;;;21.20;;
549;SDS011;20066;48.764;9.176;2023-03-03T15:07:53;47.05;;;20.58;;
549;SDS011;20066;48.764;9.176;2023-03-03T15:10:30;45.78;;;21.02;;
549;SDS011;20066;48.764;9.176;2023-03-03T15:13:23;46.28;;;20.73;;
549;SDS011;20066;48.764;9.176;2023-03-03T15:16:03;49.97;;;21.67;;
549;SDS011;20066;48.764;9.176;2023-03-03T15:18:51;44.95;;;20.85;;
549;SDS011;20066;48.764;9.176;2023-03-03T15:21:33;45.17;;;20.83;;
549;SDS011;20066;48.764;9.176;2023-03-03T15:24:04;47.22;;;22.02;;
549;SDS011;20066;48.764;9.176;2023-03-03T15:26:40;46.40;;;21.60;;
549;SDS011;20066;48.764;9.176;2023-03-03T15:29:14;43.67;;;20.95;;
549;SDS011;20066;48.764;9.176;2023-03-03T15:31:50;45.85;;;21.63;;
549;SDS011;20066;48.764;9.176;2023-03-03T15:34:32;51.33;;;21.45;;
549;SDS011;20066;48.764;9.176;2023-03-03T15:37:13;47.65;;;21.60;;
549;SDS011;20066;48.764;9.176;2023-03-03T15:39:55;47.47;;;23.05;;
549;SDS011;20066;48.764;9.176;2023-03-03T15:42:31;43.85;;;20.73;;
549;SDS011;20066;48.764;9.176;2023-03-03T15:45:06;49.38;;;22.95;;
549;SDS011;20066;48.764;9.176;2023-03-03T15:47:47;53.30;;;21.05;;
549;SDS011;20066;48.764;9.176;2023-03-03T15:50:36;55.38;;;24.15;;